sensor_id;sensor_type;location;lat;lon;timestamp;P1;durP1;ratioP1;P2;durP2;ratioP2
56073;SDS011;41950;55.840;37.442;2023-04-15T00:01:22;4.07;;;1.00;;
56073;SDS011;41950;55.840;37.442;2023-04-15T00:03:50;2.65;;;1.00;;
56073;SDS011;41950;55.840;37.442;2023-04-15T00:06:17;2.70;;;1.05;;
56073;SDS011;41950;55.840;37.442;2023-04-15T00:08:44;3.50;;;1.40;;
56073;SDS011;41950;55.840;37.442;2023-04-15T00:11:10;3.50;;;1.30;;
56073;SDS011;41950;55.840;37.442;2023-04-15T00:13:37;4.70;;;1.02;;
56073;SDS011;41950;55.840;37.442;2023-04-15T00:16:04;3.58;;;1.10;;
56073;SDS011;41950;55.840;37.442;2023-04-15T00:18:30;3.03;;;1.23;;
56073;SDS011;41950;55.840;37.442;2023-04-15T00:20:57;3.30;;;1.20;;
56073;SDS011;41950;55.840;37.442;2023-04-15T00:23:23;3.00;;;1.10;;
56073;SDS011;41950;55.840;37.442;2023-04-15T00:25:49;3.13;;;1.08;;
56073;SDS011;41950;55.840;37.442;2023-04-15T00:28:15;3.30;;;1.13;;
56073;SDS011;41950;55.840;37.442;2023-04-15T00:30:41;5.22;;;1.20;;
56073;SDS011;41950;55.840;37.442;2023-04-15T00:33:07;3.38;;;1.50;;
56073;SDS011;41950;55.840;37.442;2023-04-15T00:35:34;2.47;;;0.98;;
56073;SDS011;41950;55.840;37.442;2023-04-15T00:38:02;3.40;;;1.15;;
56073;SDS011;41950;55.840;37.442;2023-04-15T00:40:29;3.38;;;1.77;;
56073;SDS011;41950;55.840;37.442;2023-04-15T00:42:55;2.38;;;1.02;;
56073;SDS011;41950;55.840;37.442;2023-04-15T00:45:20;2.10;;;0.90;;
56073;SDS011;41950;55.840;37.442;2023-04-15T00:47:46;3.00;;;1.20;;
56073;SDS011;41950;55.840;37.442;2023-04-15T00:50:12;1.98;;;0.93;;
56073;SDS011;41950;55.840;37.442;2023-04-15T00:52:38;2.60;;;0.80;;
56073;SDS011;41950;55.840;37.442;2023-04-15T00:55:04;2.08;;;0.85;;
56073;SDS011;41950;55.840;37.442;2023-04-15T00:57:31;3.60;;;1.45;;
56073;SDS011;41950;55.840;37.442;2023-04-15T00:59:57;3.55;;;1.40;;
56073;SDS011;41950;55.840;37.442;2023-04-15T01:02:24;2.13;;;0.90;;
56073;SDS011;41950;55.840;37.442;2023-04-15T01:04:50;1.70;;;0.75;;
56073;SDS011;41950;55.840;37.442;2023-04-15T01:07:16;3.78;;;1.00;;
56073;SDS011;41950;55.840;37.442;2023-04-15T01:09:41;3.00;;;1.50;;
56073;SDS011;41950;55.840;37.442;2023-04-15T01:12:09;2.00;;;0.70;;
56073;SDS011;41950;55.840;37.442;2023-04-15T01:14:37;2.50;;;0.88;;
56073;SDS011;41950;55.840;37.442;2023-04-15T01:17:02;3.35;;;1.50;;
56073;SDS011;41950;55.840;37.442;2023-04-15T01:19:28;2.85;;;1.20;;
56073;SDS011;41950;55.840;37.442;2023-04-15T01:21:54;2.72;;;0.93;;
56073;SDS011;41950;55.840;37.442;2023-04-15T01:24:21;3.15;;;1.00;;
56073;SDS011;41950;55.840;37.442;2023-04-15T01:26:48;3.78;;;1.10;;
56073;SDS011;41950;55.840;37.442;2023-04-15T01:29:14;2.33;;;1.30;;
56073;SDS011;41950;55.840;37.442;2023-04-15T01:31:40;2.22;;;0.95;;
56073;SDS011;41950;55.840;37.442;2023-04-15T01:34:32;3.00;;;1.13;;
56073;SDS011;41950;55.840;37.442;2023-04-15T01:37:16;3.03;;;1.08;;
56073;SDS011;41950;55.840;37.442;2023-04-15T01:39:42;3.17;;;1.00;;
56073;SDS011;41950;55.840;37.442;2023-04-15T01:42:08;2.70;;;0.90;;
56073;SDS011;41950;55.840;37.442;2023-04-15T01:44:35;2.65;;;0.98;;
56073;SDS011;41950;55.840;37.442;2023-04-15T01:47:02;5.95;;;1.98;;
56073;SDS011;41950;55.840;37.442;2023-04-15T01:49:29;3.20;;;1.20;;
56073;SDS011;41950;55.840;37.442;2023-04-15T01:51:56;3.33;;;1.02;;
56073;SDS011;41950;55.840;37.442;2023-04-15T01:54:23;2.38;;;1.13;;
56073;SDS011;41950;55.840;37.442;2023-04-15T01:56:50;4.15;;;1.17;;
56073;SDS011;41950;55.840;37.442;2023-04-15T01:59:17;2.22;;;1.00;;
56073;SDS011;41950;55.840;37.442;2023-04-15T02:01:44;3.08;;;1.10;;
56073;SDS011;41950;55.840;37.442;2023-04-15T02:04:11;1.95;;;0.73;;
56073;SDS011;41950;55.840;37.442;2023-04-15T02:06:44;2.85;;;1.10;;
56073;SDS011;41950;55.840;37.442;2023-04-15T02:09:11;2.97;;;1.00;;
56073;SDS011;41950;55.840;37.442;2023-04-15T02:11:38;2.85;;;1.25;;
56073;SDS011;41950;55.840;37.442;2023-04-15T02:14:05;2.83;;;1.10;;
56073;SDS011;41950;55.840;37.442;2023-04-15T02:16:32;2.75;;;0.95;;
56073;SDS011;41950;55.840;37.442;2023-04-15T02:18:59;3.92;;;1.45;;
56073;SDS011;41950;55.840;37.442;2023-04-15T02:21:26;2.47;;;0.80;;
56073;SDS011;41950;55.840;37.442;2023-04-15T02:23:53;2.42;;;0.93;;
56073;SDS011;41950;55.840;37.442;2023-04-15T02:26:20;2.83;;;0.90;;
56073;SDS011;41950;55.840;37.442;2023-04-15T02:28:48;2.13;;;1.00;;
56073;SDS011;41950;55.840;37.442;2023-04-15T02:31:16;3.15;;;0.88;;
56073;SDS011;41950;55.840;37.442;2023-04-15T02:33:43;2.40;;;1.00;;
56073;SDS011;41950;55.840;37.442;2023-04-15T02:36:10;2.55;;;0.88;;
56073;SDS011;41950;55.840;37.442;2023-04-15T02:38:37;3.25;;;1.00;;
56073;SDS011;41950;55.840;37.442;2023-04-15T02:41:10;3.08;;;0.95;;
56073;SDS011;41950;55.840;37.442;2023-04-15T02:43:37;1.83;;;0.80;;
56073;SDS011;41950;55.840;37.442;2023-04-15T02:46:05;4.65;;;1.00;;
56073;SDS011;41950;55.840;37.442;2023-04-15T02:48:32;2.92;;;1.00;;
56073;SDS011;41950;55.840;37.442;2023-04-15T02:51:15;6.85;;;1.30;;
56073;SDS011;41950;55.840;37.442;2023-04-15T02:53:45;2.65;;;1.08;;
56073;SDS011;41950;55.840;37.442;2023-04-15T02:56:12;2.72;;;1.10;;
56073;SDS011;41950;55.840;37.442;2023-04-15T02:58:40;2.80;;;0.98;;
56073;SDS011;41950;55.840;37.442;2023-04-15T03:01:08;4.50;;;1.13;;
56073;SDS011;41950;55.840;37.442;2023-04-15T03:03:35;3.42;;;1.00;;
56073;SDS011;41950;55.840;37.442;2023-04-15T03:06:02;2.13;;;1.05;;
56073;SDS011;41950;55.840;37.442;2023-04-15T03:08:29;2.17;;;1.05;;
56073;SDS011;41950;55.840;37.442;2023-04-15T03:10:57;2.28;;;1.05;;
56073;SDS011;41950;55.840;37.442;2023-04-15T03:13:26;2.75;;;1.10;;
56073;SDS011;41950;55.840;37.442;2023-04-15T03:15:53;3.22;;;1.10;;
56073;SDS011;41950;55.840;37.442;2023-04-15T03:18:19;2.67;;;1.10;;
56073;SDS011;41950;55.840;37.442;2023-04-15T03:20:47;2.53;;;1.00;;
56073;SDS011;41950;55.840;37.442;2023-04-15T03:23:13;3.60;;;1.00;;
56073;SDS011;41950;55.840;37.442;2023-04-15T03:25:40;2.67;;;0.95;;
56073;SDS011;41950;55.840;37.442;2023-04-15T03:28:07;3.72;;;1.17;;
56073;SDS011;41950;55.840;37.442;2023-04-15T03:30:34;2.92;;;1.15;;
56073;SDS011;41950;55.840;37.442;2023-04-15T03:33:01;5.78;;;1.60;;
56073;SDS011;41950;55.840;37.442;2023-04-15T03:35:28;3.33;;;1.13;;
56073;SDS011;41950;55.840;37.442;2023-04-15T03:37:55;5.32;;;1.30;;
56073;SDS011;41950;55.840;37.442;2023-04-15T03:40:21;3.47;;;0.90;;
56073;SDS011;41950;55.840;37.442;2023-04-15T03:42:48;3.53;;;1.60;;
56073;SDS011;41950;55.840;37.442;2023-04-15T03:45:15;2.92;;;1.00;;
56073;SDS011;41950;55.840;37.442;2023-04-15T03:47:42;4.18;;;1.17;;
56073;SDS011;41950;55.840;37.442;2023-04-15T03:50:09;2.92;;;1.20;;
56073;SDS011;41950;55.840;37.442;2023-04-15T03:52:36;2.67;;;1.00;;
56073;SDS011;41950;55.840;37.442;2023-04-15T03:55:03;4.93;;;1.25;;
56073;SDS011;41950;55.840;37.442;2023-04-15T03:57:31;2.78;;;1.10;;
56073;SDS011;41950;55.840;37.442;2023-04-15T04:00:03;5.20;;;1.33;;
56073;SDS011;41950;55.840;37.442;2023-04-15T04:02:31;5.28;;;1.48;;
56073;SDS011;41950;55.840;37.442;2023-04-15T04:04:58;4.68;;;1.15;;
56073;SDS011;41950;55.840;37.442;2023-04-15T04:07:25;3.90;;;1.10;;
56073;SDS011;41950;55.840;37.442;2023-04-15T04:09:51;2.83;;;1.20;;
56073;SDS011;41950;55.840;37.442;2023-04-15T04:12:18;2.40;;;1.10;;
56073;SDS011;41950;55.840;37.442;2023-04-15T04:14:45;2.50;;;1.13;;
56073;SDS011;41950;55.840;37.442;2023-04-15T04:17:12;3.28;;;1.20;;
56073;SDS011;41950;55.840;37.442;2023-04-15T04:19:39;3.20;;;1.08;;
56073;SDS011;41950;55.840;37.442;2023-04-15T04:22:06;3.28;;;1.45;;
56073;SDS011;41950;55.840;37.442;2023-04-15T04:24:33;4.15;;;1.27;;
56073;SDS011;41950;55.840;37.442;2023-04-15T04:27:00;2.53;;;0.85;;
56073;SDS011;41950;55.840;37.442;2023-04-15T04:29:27;3.55;;;1.38;;
56073;SDS011;41950;55.840;37.442;2023-04-15T04:31:54;4.35;;;1.48;;
56073;SDS011;41950;55.840;37.442;2023-04-15T04:34:21;5.18;;;1.42;;
56073;SDS011;41950;55.840;37.442;2023-04-15T04:36:48;3.20;;;1.23;;
56073;SDS011;41950;55.840;37.442;2023-04-15T04:39:14;3.80;;;1.20;;
56073;SDS011;41950;55.840;37.442;2023-04-15T04:41:41;2.45;;;1.05;;
56073;SDS011;41950;55.840;37.442;2023-04-15T04:44:08;2.08;;;0.90;;
56073;SDS011;41950;55.840;37.442;2023-04-15T04:46:35;2.45;;;1.13;;
56073;SDS011;41950;55.840;37.442;2023-04-15T04:49:02;5.65;;;1.75;;
56073;SDS011;41950;55.840;37.442;2023-04-15T04:51:29;4.95;;;2.38;;
56073;SDS011;41950;55.840;37.442;2023-04-15T04:53:56;2.90;;;1.40;;
56073;SDS011;41950;55.840;37.442;2023-04-15T04:56:24;4.60;;;1.50;;
56073;SDS011;41950;55.840;37.442;2023-04-15T04:58:50;3.35;;;1.10;;
56073;SDS011;41950;55.840;37.442;2023-04-15T05:01:18;3.58;;;1.58;;
56073;SDS011;41950;55.840;37.442;2023-04-15T05:03:45;3.55;;;1.30;;
56073;SDS011;41950;55.840;37.442;2023-04-15T05:06:12;5.00;;;1.50;;
56073;SDS011;41950;55.840;37.442;2023-04-15T05:08:39;4.13;;;1.38;;
56073;SDS011;41950;55.840;37.442;2023-04-15T05:11:06;5.43;;;1.52;;
56073;SDS011;41950;55.840;37.442;2023-04-15T05:13:33;4.03;;;1.40;;
56073;SDS011;41950;55.840;37.442;2023-04-15T05:16:04;4.53;;;1.88;;
56073;SDS011;41950;55.840;37.442;2023-04-15T05:18:31;6.18;;;1.48;;
56073;SDS011;41950;55.840;37.442;2023-04-15T05:20:58;3.72;;;1.23;;
56073;SDS011;41950;55.840;37.442;2023-04-15T05:23:26;4.10;;;1.30;;
56073;SDS011;41950;55.840;37.442;2023-04-15T05:25:52;3.25;;;1.42;;
56073;SDS011;41950;55.840;37.442;2023-04-15T05:28:19;6.72;;;1.40;;
56073;SDS011;41950;55.840;37.442;2023-04-15T05:30:47;2.95;;;1.27;;
56073;SDS011;41950;55.840;37.442;2023-04-15T05:33:14;7.07;;;1.50;;
56073;SDS011;41950;55.840;37.442;2023-04-15T05:35:41;8.80;;;2.45;;
56073;SDS011;41950;55.840;37.442;2023-04-15T05:38:08;13.75;;;1.85;;
56073;SDS011;41950;55.840;37.442;2023-04-15T05:40:35;3.33;;;1.42;;
56073;SDS011;41950;55.840;37.442;2023-04-15T05:43:07;3.45;;;1.38;;
56073;SDS011;41950;55.840;37.442;2023-04-15T05:45:37;3.55;;;1.40;;
56073;SDS011;41950;55.840;37.442;2023-04-15T05:48:03;3.33;;;1.42;;
56073;SDS011;41950;55.840;37.442;2023-04-15T05:50:30;8.10;;;1.90;;
56073;SDS011;41950;55.840;37.442;2023-04-15T05:52:57;4.70;;;1.60;;
56073;SDS011;41950;55.840;37.442;2023-04-15T05:55:24;2.92;;;1.17;;
56073;SDS011;41950;55.840;37.442;2023-04-15T05:57:51;5.03;;;1.70;;
56073;SDS011;41950;55.840;37.442;2023-04-15T06:00:18;18.50;;;2.30;;
56073;SDS011;41950;55.840;37.442;2023-04-15T06:02:45;4.45;;;1.70;;
56073;SDS011;41950;55.840;37.442;2023-04-15T06:05:12;4.60;;;1.65;;
56073;SDS011;41950;55.840;37.442;2023-04-15T06:07:39;3.80;;;1.55;;
56073;SDS011;41950;55.840;37.442;2023-04-15T06:10:07;8.35;;;1.90;;
56073;SDS011;41950;55.840;37.442;2023-04-15T06:12:34;4.78;;;1.52;;
56073;SDS011;41950;55.840;37.442;2023-04-15T06:15:01;5.72;;;1.42;;
56073;SDS011;41950;55.840;37.442;2023-04-15T06:17:29;3.47;;;1.30;;
56073;SDS011;41950;55.840;37.442;2023-04-15T06:19:56;3.17;;;1.40;;
56073;SDS011;41950;55.840;37.442;2023-04-15T06:22:23;3.50;;;1.30;;
56073;SDS011;41950;55.840;37.442;2023-04-15T06:24:50;3.13;;;1.35;;
56073;SDS011;41950;55.840;37.442;2023-04-15T06:27:17;3.53;;;1.40;;
56073;SDS011;41950;55.840;37.442;2023-04-15T06:29:44;4.25;;;1.50;;
56073;SDS011;41950;55.840;37.442;2023-04-15T06:32:11;3.90;;;1.35;;
56073;SDS011;41950;55.840;37.442;2023-04-15T06:34:38;5.35;;;1.42;;
56073;SDS011;41950;55.840;37.442;2023-04-15T06:37:05;4.22;;;1.38;;
56073;SDS011;41950;55.840;37.442;2023-04-15T06:39:32;5.88;;;1.88;;
56073;SDS011;41950;55.840;37.442;2023-04-15T06:41:59;3.80;;;1.50;;
56073;SDS011;41950;55.840;37.442;2023-04-15T06:44:26;3.95;;;1.35;;
56073;SDS011;41950;55.840;37.442;2023-04-15T06:46:54;5.82;;;1.75;;
56073;SDS011;41950;55.840;37.442;2023-04-15T06:49:22;4.22;;;1.60;;
56073;SDS011;41950;55.840;37.442;2023-04-15T06:51:48;6.00;;;1.20;;
56073;SDS011;41950;55.840;37.442;2023-04-15T06:54:17;4.95;;;1.27;;
56073;SDS011;41950;55.840;37.442;2023-04-15T06:56:43;4.35;;;1.50;;
56073;SDS011;41950;55.840;37.442;2023-04-15T06:59:10;3.58;;;1.10;;
56073;SDS011;41950;55.840;37.442;2023-04-15T07:01:39;7.35;;;1.45;;
56073;SDS011;41950;55.840;37.442;2023-04-15T07:04:06;2.80;;;1.25;;
56073;SDS011;41950;55.840;37.442;2023-04-15T07:06:33;5.22;;;1.92;;
56073;SDS011;41950;55.840;37.442;2023-04-15T07:09:01;5.22;;;1.45;;
56073;SDS011;41950;55.840;37.442;2023-04-15T07:11:29;3.45;;;1.40;;
56073;SDS011;41950;55.840;37.442;2023-04-15T07:13:56;3.50;;;1.17;;
56073;SDS011;41950;55.840;37.442;2023-04-15T07:16:24;3.13;;;1.20;;
56073;SDS011;41950;55.840;37.442;2023-04-15T07:18:51;4.78;;;1.10;;
56073;SDS011;41950;55.840;37.442;2023-04-15T07:21:17;8.13;;;1.52;;
56073;SDS011;41950;55.840;37.442;2023-04-15T07:23:44;2.50;;;0.98;;
56073;SDS011;41950;55.840;37.442;2023-04-15T07:26:11;3.90;;;1.17;;
56073;SDS011;41950;55.840;37.442;2023-04-15T07:28:39;4.18;;;1.38;;
56073;SDS011;41950;55.840;37.442;2023-04-15T07:31:06;2.90;;;1.30;;
56073;SDS011;41950;55.840;37.442;2023-04-15T07:33:34;4.63;;;1.38;;
56073;SDS011;41950;55.840;37.442;2023-04-15T07:36:01;3.78;;;1.20;;
56073;SDS011;41950;55.840;37.442;2023-04-15T07:38:28;5.78;;;1.65;;
56073;SDS011;41950;55.840;37.442;2023-04-15T07:40:55;4.32;;;1.45;;
56073;SDS011;41950;55.840;37.442;2023-04-15T07:43:22;3.15;;;1.17;;
56073;SDS011;41950;55.840;37.442;2023-04-15T07:45:48;3.35;;;1.65;;
56073;SDS011;41950;55.840;37.442;2023-04-15T07:48:15;5.63;;;1.50;;
56073;SDS011;41950;55.840;37.442;2023-04-15T07:50:42;4.47;;;1.17;;
56073;SDS011;41950;55.840;37.442;2023-04-15T07:53:09;3.92;;;1.20;;
56073;SDS011;41950;55.840;37.442;2023-04-15T07:55:36;3.42;;;1.40;;
56073;SDS011;41950;55.840;37.442;2023-04-15T07:58:03;4.50;;;1.40;;
56073;SDS011;41950;55.840;37.442;2023-04-15T08:00:30;3.38;;;1.35;;
56073;SDS011;41950;55.840;37.442;2023-04-15T08:02:57;2.85;;;1.00;;
56073;SDS011;41950;55.840;37.442;2023-04-15T08:05:25;4.15;;;1.73;;
56073;SDS011;41950;55.840;37.442;2023-04-15T08:07:51;5.65;;;1.30;;
56073;SDS011;41950;55.840;37.442;2023-04-15T08:10:18;4.22;;;1.40;;
56073;SDS011;41950;55.840;37.442;2023-04-15T08:12:45;4.90;;;1.27;;
56073;SDS011;41950;55.840;37.442;2023-04-15T08:15:14;4.55;;;1.38;;
56073;SDS011;41950;55.840;37.442;2023-04-15T08:17:44;4.03;;;1.30;;
56073;SDS011;41950;55.840;37.442;2023-04-15T08:20:11;4.05;;;1.48;;
56073;SDS011;41950;55.840;37.442;2023-04-15T08:22:39;4.57;;;1.35;;
56073;SDS011;41950;55.840;37.442;2023-04-15T08:25:07;3.08;;;1.20;;
56073;SDS011;41950;55.840;37.442;2023-04-15T08:27:34;4.78;;;1.40;;
56073;SDS011;41950;55.840;37.442;2023-04-15T08:30:01;5.32;;;1.60;;
56073;SDS011;41950;55.840;37.442;2023-04-15T08:32:29;2.97;;;1.05;;
56073;SDS011;41950;55.840;37.442;2023-04-15T08:34:57;3.25;;;1.17;;
56073;SDS011;41950;55.840;37.442;2023-04-15T08:37:24;4.80;;;1.65;;
56073;SDS011;41950;55.840;37.442;2023-04-15T08:39:52;6.78;;;1.40;;
56073;SDS011;41950;55.840;37.442;2023-04-15T08:42:22;4.85;;;1.80;;
56073;SDS011;41950;55.840;37.442;2023-04-15T08:44:53;6.05;;;1.58;;
56073;SDS011;41950;55.840;37.442;2023-04-15T08:47:20;3.13;;;1.40;;
56073;SDS011;41950;55.840;37.442;2023-04-15T08:49:52;3.85;;;1.30;;
56073;SDS011;41950;55.840;37.442;2023-04-15T08:52:25;3.30;;;0.90;;
56073;SDS011;41950;55.840;37.442;2023-04-15T08:54:55;3.08;;;1.20;;
56073;SDS011;41950;55.840;37.442;2023-04-15T08:57:29;3.80;;;1.35;;
56073;SDS011;41950;55.840;37.442;2023-04-15T08:59:57;4.18;;;1.30;;
56073;SDS011;41950;55.840;37.442;2023-04-15T09:02:24;5.05;;;1.67;;
56073;SDS011;41950;55.840;37.442;2023-04-15T09:04:52;4.03;;;1.30;;
56073;SDS011;41950;55.840;37.442;2023-04-15T09:07:21;4.22;;;1.52;;
56073;SDS011;41950;55.840;37.442;2023-04-15T09:09:47;4.97;;;1.88;;
56073;SDS011;41950;55.840;37.442;2023-04-15T09:12:14;3.40;;;1.60;;
56073;SDS011;41950;55.840;37.442;2023-04-15T09:14:44;6.38;;;1.58;;
56073;SDS011;41950;55.840;37.442;2023-04-15T09:17:12;4.93;;;1.50;;
56073;SDS011;41950;55.840;37.442;2023-04-15T09:19:43;2.72;;;1.33;;
56073;SDS011;41950;55.840;37.442;2023-04-15T09:22:10;5.65;;;1.70;;
56073;SDS011;41950;55.840;37.442;2023-04-15T09:24:39;3.95;;;1.70;;
56073;SDS011;41950;55.840;37.442;2023-04-15T09:27:07;3.97;;;1.60;;
56073;SDS011;41950;55.840;37.442;2023-04-15T09:29:34;3.53;;;1.23;;
56073;SDS011;41950;55.840;37.442;2023-04-15T09:32:09;3.97;;;1.55;;
56073;SDS011;41950;55.840;37.442;2023-04-15T09:34:37;3.53;;;1.40;;
56073;SDS011;41950;55.840;37.442;2023-04-15T09:37:04;5.93;;;1.77;;
56073;SDS011;41950;55.840;37.442;2023-04-15T09:39:49;6.15;;;1.73;;
56073;SDS011;41950;55.840;37.442;2023-04-15T09:42:17;4.18;;;1.55;;
56073;SDS011;41950;55.840;37.442;2023-04-15T09:44:50;5.80;;;1.50;;
56073;SDS011;41950;55.840;37.442;2023-04-15T09:47:30;3.80;;;1.50;;
56073;SDS011;41950;55.840;37.442;2023-04-15T09:49:58;4.82;;;1.38;;
56073;SDS011;41950;55.840;37.442;2023-04-15T09:52:26;3.13;;;1.50;;
56073;SDS011;41950;55.840;37.442;2023-04-15T09:54:54;3.95;;;1.50;;
56073;SDS011;41950;55.840;37.442;2023-04-15T09:57:22;2.75;;;1.38;;
56073;SDS011;41950;55.840;37.442;2023-04-15T09:59:50;5.15;;;1.65;;
56073;SDS011;41950;55.840;37.442;2023-04-15T10:02:18;5.40;;;1.88;;
56073;SDS011;41950;55.840;37.442;2023-04-15T10:04:47;3.63;;;1.42;;
56073;SDS011;41950;55.840;37.442;2023-04-15T10:07:14;4.50;;;1.77;;
56073;SDS011;41950;55.840;37.442;2023-04-15T10:09:45;4.57;;;2.15;;
56073;SDS011;41950;55.840;37.442;2023-04-15T10:12:17;5.35;;;1.80;;
56073;SDS011;41950;55.840;37.442;2023-04-15T10:14:51;5.65;;;1.60;;
56073;SDS011;41950;55.840;37.442;2023-04-15T10:17:21;3.00;;;1.40;;
56073;SDS011;41950;55.840;37.442;2023-04-15T10:19:52;4.63;;;1.45;;
56073;SDS011;41950;55.840;37.442;2023-04-15T10:22:21;4.85;;;1.60;;
56073;SDS011;41950;55.840;37.442;2023-04-15T10:24:49;4.07;;;1.38;;
56073;SDS011;41950;55.840;37.442;2023-04-15T10:27:16;3.10;;;1.30;;
56073;SDS011;41950;55.840;37.442;2023-04-15T10:29:44;4.93;;;1.90;;
56073;SDS011;41950;55.840;37.442;2023-04-15T10:32:11;4.97;;;1.77;;
56073;SDS011;41950;55.840;37.442;2023-04-15T10:34:39;3.38;;;1.58;;
56073;SDS011;41950;55.840;37.442;2023-04-15T10:37:08;4.57;;;1.52;;
56073;SDS011;41950;55.840;37.442;2023-04-15T10:39:39;5.32;;;1.77;;
56073;SDS011;41950;55.840;37.442;2023-04-15T10:42:09;3.50;;;1.50;;
56073;SDS011;41950;55.840;37.442;2023-04-15T10:44:41;5.28;;;1.85;;
56073;SDS011;41950;55.840;37.442;2023-04-15T10:49:44;4.57;;;1.40;;
56073;SDS011;41950;55.840;37.442;2023-04-15T10:52:14;3.92;;;1.50;;
56073;SDS011;41950;55.840;37.442;2023-04-15T10:54:43;3.58;;;1.60;;
56073;SDS011;41950;55.840;37.442;2023-04-15T10:57:14;3.97;;;1.80;;
56073;SDS011;41950;55.840;37.442;2023-04-15T11:00:00;4.28;;;2.10;;
56073;SDS011;41950;55.840;37.442;2023-04-15T11:02:45;3.40;;;1.50;;
56073;SDS011;41950;55.840;37.442;2023-04-15T11:05:20;3.60;;;1.55;;
56073;SDS011;41950;55.840;37.442;2023-04-15T11:08:11;4.25;;;1.77;;
56073;SDS011;41950;55.840;37.442;2023-04-15T11:18:08;5.30;;;1.77;;
56073;SDS011;41950;55.840;37.442;2023-04-15T11:20:37;3.22;;;1.70;;
56073;SDS011;41950;55.840;37.442;2023-04-15T11:26:12;6.45;;;2.30;;
56073;SDS011;41950;55.840;37.442;2023-04-15T11:28:41;4.40;;;1.77;;
56073;SDS011;41950;55.840;37.442;2023-04-15T11:33:59;6.50;;;2.17;;
56073;SDS011;41950;55.840;37.442;2023-04-15T11:36:28;4.22;;;1.60;;
56073;SDS011;41950;55.840;37.442;2023-04-15T11:38:57;3.92;;;1.83;;
56073;SDS011;41950;55.840;37.442;2023-04-15T11:41:25;5.03;;;1.60;;
56073;SDS011;41950;55.840;37.442;2023-04-15T11:43:52;5.10;;;2.20;;
56073;SDS011;41950;55.840;37.442;2023-04-15T11:46:19;4.47;;;2.05;;
56073;SDS011;41950;55.840;37.442;2023-04-15T11:48:47;4.22;;;1.60;;
56073;SDS011;41950;55.840;37.442;2023-04-15T11:51:14;4.75;;;1.55;;
56073;SDS011;41950;55.840;37.442;2023-04-15T11:53:41;4.18;;;1.60;;
56073;SDS011;41950;55.840;37.442;2023-04-15T11:56:17;5.22;;;1.60;;
56073;SDS011;41950;55.840;37.442;2023-04-15T11:58:45;4.30;;;1.92;;
56073;SDS011;41950;55.840;37.442;2023-04-15T12:01:11;5.22;;;2.00;;
56073;SDS011;41950;55.840;37.442;2023-04-15T12:03:39;5.63;;;2.00;;
56073;SDS011;41950;55.840;37.442;2023-04-15T12:13:55;4.35;;;1.88;;
56073;SDS011;41950;55.840;37.442;2023-04-15T12:16:28;4.70;;;1.52;;
56073;SDS011;41950;55.840;37.442;2023-04-15T12:18:55;5.75;;;2.20;;
56073;SDS011;41950;55.840;37.442;2023-04-15T12:21:23;3.65;;;1.70;;
56073;SDS011;41950;55.840;37.442;2023-04-15T12:23:51;3.90;;;1.98;;
56073;SDS011;41950;55.840;37.442;2023-04-15T12:26:25;7.05;;;2.10;;
56073;SDS011;41950;55.840;37.442;2023-04-15T12:29:02;5.43;;;2.05;;
56073;SDS011;41950;55.840;37.442;2023-04-15T12:31:30;3.08;;;1.60;;
56073;SDS011;41950;55.840;37.442;2023-04-15T12:33:56;5.13;;;1.90;;
56073;SDS011;41950;55.840;37.442;2023-04-15T12:36:23;3.47;;;1.55;;
56073;SDS011;41950;55.840;37.442;2023-04-15T12:38:49;4.15;;;1.88;;
56073;SDS011;41950;55.840;37.442;2023-04-15T12:41:15;4.05;;;2.03;;
56073;SDS011;41950;55.840;37.442;2023-04-15T12:43:42;5.13;;;2.15;;
56073;SDS011;41950;55.840;37.442;2023-04-15T12:46:09;5.68;;;2.22;;
56073;SDS011;41950;55.840;37.442;2023-04-15T12:48:35;4.90;;;1.88;;
56073;SDS011;41950;55.840;37.442;2023-04-15T12:51:00;4.85;;;2.88;;
56073;SDS011;41950;55.840;37.442;2023-04-15T12:53:26;4.80;;;1.92;;
56073;SDS011;41950;55.840;37.442;2023-04-15T12:55:52;5.10;;;1.65;;
56073;SDS011;41950;55.840;37.442;2023-04-15T12:58:18;4.95;;;1.70;;
56073;SDS011;41950;55.840;37.442;2023-04-15T13:00:45;4.43;;;1.80;;
56073;SDS011;41950;55.840;37.442;2023-04-15T13:03:11;3.58;;;1.65;;
56073;SDS011;41950;55.840;37.442;2023-04-15T13:05:37;3.67;;;1.75;;
56073;SDS011;41950;55.840;37.442;2023-04-15T13:08:05;5.35;;;1.95;;
56073;SDS011;41950;55.840;37.442;2023-04-15T13:10:31;6.32;;;1.95;;
56073;SDS011;41950;55.840;37.442;2023-04-15T13:12:57;4.53;;;1.55;;
56073;SDS011;41950;55.840;37.442;2023-04-15T13:15:22;5.10;;;1.83;;
56073;SDS011;41950;55.840;37.442;2023-04-15T13:17:50;3.95;;;2.00;;
56073;SDS011;41950;55.840;37.442;2023-04-15T13:20:16;5.65;;;2.05;;
56073;SDS011;41950;55.840;37.442;2023-04-15T13:22:43;6.68;;;2.10;;
56073;SDS011;41950;55.840;37.442;2023-04-15T13:25:08;3.47;;;1.75;;
56073;SDS011;41950;55.840;37.442;2023-04-15T13:27:34;5.63;;;2.42;;
56073;SDS011;41950;55.840;37.442;2023-04-15T13:30:00;4.47;;;2.15;;
56073;SDS011;41950;55.840;37.442;2023-04-15T13:32:26;4.28;;;2.10;;
56073;SDS011;41950;55.840;37.442;2023-04-15T13:34:51;4.20;;;1.80;;
56073;SDS011;41950;55.840;37.442;2023-04-15T13:37:18;4.82;;;1.63;;
56073;SDS011;41950;55.840;37.442;2023-04-15T13:39:45;4.82;;;2.05;;
56073;SDS011;41950;55.840;37.442;2023-04-15T13:42:10;5.25;;;2.90;;
56073;SDS011;41950;55.840;37.442;2023-04-15T13:44:36;7.10;;;2.17;;
56073;SDS011;41950;55.840;37.442;2023-04-15T13:47:02;3.83;;;1.90;;
56073;SDS011;41950;55.840;37.442;2023-04-15T13:49:28;3.70;;;1.90;;
56073;SDS011;41950;55.840;37.442;2023-04-15T13:51:54;4.50;;;2.00;;
56073;SDS011;41950;55.840;37.442;2023-04-15T13:54:19;5.07;;;2.00;;
56073;SDS011;41950;55.840;37.442;2023-04-15T13:56:45;3.95;;;2.10;;
56073;SDS011;41950;55.840;37.442;2023-04-15T13:59:11;4.93;;;2.08;;
56073;SDS011;41950;55.840;37.442;2023-04-15T14:01:37;5.45;;;2.15;;
56073;SDS011;41950;55.840;37.442;2023-04-15T14:04:05;4.20;;;1.90;;
56073;SDS011;41950;55.840;37.442;2023-04-15T14:06:31;5.60;;;2.40;;
56073;SDS011;41950;55.840;37.442;2023-04-15T14:08:56;4.70;;;2.10;;
56073;SDS011;41950;55.840;37.442;2023-04-15T14:11:22;6.32;;;1.90;;
56073;SDS011;41950;55.840;37.442;2023-04-15T14:13:48;5.47;;;2.63;;
56073;SDS011;41950;55.840;37.442;2023-04-15T14:16:14;3.88;;;1.98;;
56073;SDS011;41950;55.840;37.442;2023-04-15T14:18:40;5.35;;;2.10;;
56073;SDS011;41950;55.840;37.442;2023-04-15T14:21:07;5.22;;;2.17;;
56073;SDS011;41950;55.840;37.442;2023-04-15T14:23:33;6.82;;;2.20;;
56073;SDS011;41950;55.840;37.442;2023-04-15T14:25:58;6.88;;;2.40;;
56073;SDS011;41950;55.840;37.442;2023-04-15T14:28:24;3.63;;;1.98;;
56073;SDS011;41950;55.840;37.442;2023-04-15T14:30:50;7.20;;;2.17;;
56073;SDS011;41950;55.840;37.442;2023-04-15T14:33:16;6.47;;;2.15;;
56073;SDS011;41950;55.840;37.442;2023-04-15T14:35:41;6.15;;;2.40;;
56073;SDS011;41950;55.840;37.442;2023-04-15T14:38:07;6.65;;;2.30;;
56073;SDS011;41950;55.840;37.442;2023-04-15T14:40:35;5.50;;;2.25;;
56073;SDS011;41950;55.840;37.442;2023-04-15T14:43:01;5.75;;;2.65;;
56073;SDS011;41950;55.840;37.442;2023-04-15T14:45:28;6.65;;;3.10;;
56073;SDS011;41950;55.840;37.442;2023-04-15T14:47:55;6.28;;;3.45;;
56073;SDS011;41950;55.840;37.442;2023-04-15T14:50:21;6.10;;;2.10;;
56073;SDS011;41950;55.840;37.442;2023-04-15T14:52:47;4.57;;;2.10;;
56073;SDS011;41950;55.840;37.442;2023-04-15T14:55:12;5.97;;;2.40;;
56073;SDS011;41950;55.840;37.442;2023-04-15T14:57:39;5.43;;;2.42;;
56073;SDS011;41950;55.840;37.442;2023-04-15T15:00:06;8.70;;;2.45;;